Time;durP1;ratioP1;P1;durP2;ratioP2;P2;SDS_P1;SDS_P2;PMS_P1;PMS_P2;Temp;Humidity;BMP_temperature;BMP_pressure;BME280_temperature;BME280_humidity;BME280_pressure;Samples;Min_cycle;Max_cycle;Signal;HPM_P1;HPM_P2
2023/11/26 00:01:27;;;;;;;3.63;1.80;;;;;;;;;;4862424;29;20061;-80
2023/11/26 00:03:57;;;;;;;10.50;2.03;;;;;;;;;;4878816;29;20501;-81
2023/11/26 00:06:31;;;;;;;6.53;2.13;;;;;;;;;;4878642;29;20060;-79
2023/11/26 00:09:01;;;;;;;4.60;1.80;;;;;;;;;;4878042;29;20057;-78
2023/11/26 00:11:31;;;;;;;9.00;2.67;;;;;;;;;;4878198;29;20060;-80
2023/11/26 00:14:02;;;;;;;9.75;2.15;;;;;;;;;;4879094;29;20485;-80
2023/11/26 00:16:38;;;;;;;7.95;1.67;;;;;;;;;;4878778;29;20053;-79
2023/11/26 00:19:09;;;;;;;6.05;1.80;;;;;;;;;;4878327;29;20123;-78
2023/11/26 00:21:39;;;;;;;7.55;2.50;;;;;;;;;;4878324;29;20465;-78
2023/11/26 00:24:09;;;;;;;11.70;1.98;;;;;;;;;;4878951;29;20049;-79
2023/11/26 00:26:39;;;;;;;9.77;1.60;;;;;;;;;;4878177;29;20516;-80
2023/11/26 00:29:10;;;;;;;7.82;1.65;;;;;;;;;;4877885;29;20473;-79
2023/11/26 00:31:42;;;;;;;8.70;2.05;;;;;;;;;;4879244;29;20045;-79
2023/11/26 00:34:13;;;;;;;6.70;1.85;;;;;;;;;;4879350;29;20055;-79
2023/11/26 00:36:43;;;;;;;4.95;2.30;;;;;;;;;;4871355;29;20438;-80
2023/11/26 00:39:16;;;;;;;10.43;2.22;;;;;;;;;;4879433;29;20049;-79
2023/11/26 00:41:46;;;;;;;;;;;;;;;;;;4862047;29;20064;-79
2023/11/26 00:44:16;;;;;;;7.15;2.13;;;;;;;;;;4878612;29;20418;-80
2023/11/26 00:46:47;;;;;;;6.90;2.42;;;;;;;;;;4879467;29;20053;-79
2023/11/26 00:49:17;;;;;;;7.28;2.28;;;;;;;;;;4879392;29;20370;-82
2023/11/26 00:51:47;;;;;;;5.38;2.25;;;;;;;;;;4879126;29;20056;-80
2023/11/26 00:54:18;;;;;;;6.63;2.53;;;;;;;;;;4846884;29;20492;-80
2023/11/26 00:56:48;;;;;;;5.75;2.42;;;;;;;;;;4882002;29;20484;-80
2023/11/26 00:59:19;;;;;;;12.65;2.42;;;;;;;;;;4883176;29;20465;-80
2023/11/26 01:01:49;;;;;;;11.88;2.25;;;;;;;;;;4883015;29;20041;-80
2023/11/26 01:04:19;;;;;;;6.13;2.13;;;;;;;;;;4882568;29;20064;-79
2023/11/26 01:06:49;;;;;;;8.43;2.15;;;;;;;;;;4881482;29;20064;-79
2023/11/26 01:09:20;;;;;;;5.10;2.20;;;;;;;;;;4881147;29;20053;-79
2023/11/26 01:11:51;;;;;;;7.38;2.22;;;;;;;;;;4882400;29;20049;-80
2023/11/26 01:14:21;;;;;;;6.68;2.40;;;;;;;;;;4882795;29;20053;-79
2023/11/26 01:16:52;;;;;;;7.07;2.55;;;;;;;;;;4882341;29;20049;-79
2023/11/26 01:19:22;;;;;;;14.05;2.35;;;;;;;;;;4881357;29;20388;-79
2023/11/26 01:21:54;;;;;;;8.35;3.22;;;;;;;;;;4882312;29;20041;-79
2023/11/26 01:24:24;;;;;;;10.07;2.75;;;;;;;;;;4882264;29;20045;-79
2023/11/26 01:26:54;;;;;;;6.55;2.63;;;;;;;;;;4864762;29;20060;-79
2023/11/26 01:29:24;;;;;;;9.40;2.72;;;;;;;;;;4882165;29;20053;-79
2023/11/26 01:31:54;;;;;;;9.85;3.55;;;;;;;;;;4865192;29;20080;-79
2023/11/26 01:34:25;;;;;;;6.95;2.33;;;;;;;;;;4850422;29;20076;-79
2023/11/26 01:36:56;;;;;;;7.75;2.78;;;;;;;;;;4881406;29;20075;-80
2023/11/26 01:39:26;;;;;;;8.27;2.42;;;;;;;;;;4882220;29;20056;-83
2023/11/26 01:41:56;;;;;;;12.55;2.50;;;;;;;;;;4880884;29;20424;-80
2023/11/26 01:44:30;;;;;;;8.60;2.72;;;;;;;;;;4864687;29;20056;-83
2023/11/26 01:47:06;;;;;;;;;;;;;;;;;;4864824;29;20049;-80
2023/11/26 01:49:37;;;;;;;15.55;2.65;;;;;;;;;;4882196;29;19950;-81
2023/11/26 01:52:09;;;;;;;6.20;2.53;;;;;;;;;;4881609;29;20180;-80
2023/11/26 01:54:43;;;;;;;6.30;2.63;;;;;;;;;;4881747;29;20045;-82
2023/11/26 01:57:15;;;;;;;10.05;2.47;;;;;;;;;;4880657;29;20049;-81
2023/11/26 01:59:48;;;;;;;9.38;2.90;;;;;;;;;;4865524;29;20417;-80
2023/11/26 02:02:18;;;;;;;5.90;2.05;;;;;;;;;;4864012;29;20068;-81
2023/11/26 02:04:48;;;;;;;10.45;2.72;;;;;;;;;;4881731;29;20053;-80
2023/11/26 02:07:19;;;;;;;6.05;2.40;;;;;;;;;;4862639;29;20390;-81
2023/11/26 02:09:50;;;;;;;;;;;;;;;;;;4882596;29;20076;-81
2023/11/26 02:12:20;;;;;;;8.73;2.55;;;;;;;;;;4864249;29;19930;-84
2023/11/26 02:14:50;;;;;;;8.55;2.28;;;;;;;;;;4864423;29;20493;-79
2023/11/26 02:17:20;;;;;;;10.45;2.40;;;;;;;;;;4863698;29;20052;-84
2023/11/26 02:19:53;;;;;;;8.07;2.50;;;;;;;;;;4864544;29;20061;-82
2023/11/26 02:22:24;;;;;;;6.97;2.20;;;;;;;;;;4865046;29;20466;-80
2023/11/26 02:24:54;;;;;;;6.97;2.30;;;;;;;;;;4864421;29;20084;-82
2023/11/26 02:27:26;;;;;;;8.82;2.42;;;;;;;;;;4863672;29;20057;-83
2023/11/26 02:29:56;;;;;;;7.72;2.53;;;;;;;;;;4881329;29;20128;-81
2023/11/26 02:32:26;;;;;;;9.13;2.70;;;;;;;;;;4886745;29;20060;-81
2023/11/26 02:34:56;;;;;;;6.70;2.70;;;;;;;;;;4889109;29;20052;-83
2023/11/26 02:37:26;;;;;;;6.68;2.15;;;;;;;;;;4886920;29;20048;-80
2023/11/26 02:39:56;;;;;;;6.97;2.05;;;;;;;;;;4881043;29;20049;-81
2023/11/26 02:42:27;;;;;;;6.82;2.25;;;;;;;;;;4885921;29;20500;-81
2023/11/26 02:44:56;;;;;;;9.57;2.65;;;;;;;;;;4887711;29;21053;-83
2023/11/26 02:47:28;;;;;;;7.78;2.80;;;;;;;;;;4880049;29;20373;-80
2023/11/26 02:49:58;;;;;;;5.95;2.10;;;;;;;;;;4878860;29;20057;-80
2023/11/26 02:52:28;;;;;;;5.88;2.35;;;;;;;;;;4880664;29;20049;-80
2023/11/26 02:54:59;;;;;;;9.38;2.70;;;;;;;;;;4881360;29;20056;-80
2023/11/26 02:57:31;;;;;;;;;;;;;;;;;;4880186;29;20057;-81
2023/11/26 03:00:01;;;;;;;6.78;2.33;;;;;;;;;;4880858;29;19932;-80
2023/11/26 03:02:34;;;;;;;6.20;2.40;;;;;;;;;;4863653;29;20061;-81
2023/11/26 03:05:15;;;;;;;7.07;2.22;;;;;;;;;;4880848;29;20052;-79
2023/11/26 03:07:47;;;;;;;6.05;2.10;;;;;;;;;;4879859;29;20057;-80
2023/11/26 03:13:11;;;;;;;9.48;2.83;;;;;;;;;;4879779;29;20063;-80
2023/11/26 03:15:44;;;;;;;11.07;2.65;;;;;;;;;;4879969;29;20057;-79
2023/11/26 03:18:17;;;;;;;8.68;2.50;;;;;;;;;;4878194;29;20049;-80
2023/11/26 03:20:47;;;;;;;10.05;2.25;;;;;;;;;;4880495;29;20049;-80
2023/11/26 03:23:17;;;;;;;8.18;2.25;;;;;;;;;;4878585;29;20064;-80
2023/11/26 03:25:47;;;;;;;4.68;2.22;;;;;;;;;;4878609;29;20408;-83
2023/11/26 03:28:22;;;;;;;8.60;2.40;;;;;;;;;;4878885;29;20061;-81
2023/11/26 03:30:54;;;;;;;5.72;2.20;;;;;;;;;;4879645;29;20045;-80
2023/11/26 03:33:26;;;;;;;7.30;3.42;;;;;;;;;;4880263;29;20401;-79
2023/11/26 03:35:57;;;;;;;10.23;2.30;;;;;;;;;;4878362;29;20108;-80
2023/11/26 03:38:28;;;;;;;7.15;2.03;;;;;;;;;;4863021;29;20510;-83
2023/11/26 03:40:59;;;;;;;6.55;1.90;;;;;;;;;;4878190;29;20053;-82
2023/11/26 03:43:29;;;;;;;9.25;2.35;;;;;;;;;;4880202;29;20056;-80
2023/11/26 03:45:59;;;;;;;7.35;2.13;;;;;;;;;;4879707;29;20119;-80
2023/11/26 03:48:28;;;;;;;5.38;2.22;;;;;;;;;;4880017;29;20053;-80
2023/11/26 03:50:58;;;;;;;6.80;1.98;;;;;;;;;;4862139;29;20420;-81
2023/11/26 03:53:28;;;;;;;13.57;1.83;;;;;;;;;;4879788;29;20386;-79
2023/11/26 03:55:59;;;;;;;9.77;2.25;;;;;;;;;;4878281;29;20080;-84
2023/11/26 03:58:29;;;;;;;5.65;1.80;;;;;;;;;;4879614;29;20432;-81
2023/11/26 04:00:58;;;;;;;5.05;2.03;;;;;;;;;;4878179;29;20485;-82
2023/11/26 04:03:28;;;;;;;6.28;2.10;;;;;;;;;;4878225;29;20061;-80
2023/11/26 04:06:00;;;;;;;8.55;2.28;;;;;;;;;;4879493;29;20053;-82
2023/11/26 04:08:31;;;;;;;6.32;2.17;;;;;;;;;;4862366;29;20057;-84
2023/11/26 04:11:01;;;;;;;6.78;2.03;;;;;;;;;;4878921;29;20057;-80
2023/11/26 04:13:33;;;;;;;9.68;2.03;;;;;;;;;;4884321;29;20049;-81
2023/11/26 04:16:05;;;;;;;7.45;2.55;;;;;;;;;;4896884;29;20503;-82
2023/11/26 04:18:35;;;;;;;6.28;3.13;;;;;;;;;;4896928;29;20400;-85
2023/11/26 04:21:10;;;;;;;9.05;2.15;;;;;;;;;;4896357;29;20063;-84
2023/11/26 04:23:41;;;;;;;6.57;2.05;;;;;;;;;;4896765;29;20059;-81
2023/11/26 04:26:11;;;;;;;4.45;1.88;;;;;;;;;;4896516;29;20076;-82
2023/11/26 04:28:41;;;;;;;8.57;2.22;;;;;;;;;;4896779;29;20057;-80
2023/11/26 04:31:11;;;;;;;8.45;2.08;;;;;;;;;;4897613;29;20052;-81
2023/11/26 04:33:41;;;;;;;5.10;1.95;;;;;;;;;;4896321;29;20502;-80
2023/11/26 04:36:11;;;;;;;4.18;1.80;;;;;;;;;;4896884;29;20052;-79
2023/11/26 04:38:41;;;;;;;4.93;1.67;;;;;;;;;;4896123;29;20059;-81
2023/11/26 04:41:12;;;;;;;4.68;1.65;;;;;;;;;;4896358;29;20052;-80
2023/11/26 04:43:43;;;;;;;3.60;1.98;;;;;;;;;;4896875;29;20492;-80
2023/11/26 04:46:17;;;;;;;4.85;1.63;;;;;;;;;;4897850;29;20060;-80
2023/11/26 04:48:47;;;;;;;3.38;1.63;;;;;;;;;;4897420;29;20408;-80
2023/11/26 04:51:18;;;;;;;9.25;1.98;;;;;;;;;;4897473;29;20480;-80
2023/11/26 04:53:49;;;;;;;6.20;1.45;;;;;;;;;;4896540;29;20067;-81
2023/11/26 04:56:19;;;;;;;4.10;1.50;;;;;;;;;;4896340;29;20483;-84
2023/11/26 04:58:48;;;;;;;4.55;1.60;;;;;;;;;;4897535;29;20045;-81
2023/11/26 05:01:18;;;;;;;3.70;1.45;;;;;;;;;;4897408;29;20524;-80
2023/11/26 05:03:49;;;;;;;3.05;1.50;;;;;;;;;;4896846;29;20060;-80
2023/11/26 05:06:19;;;;;;;6.03;1.52;;;;;;;;;;4896660;29;20503;-81
2023/11/26 05:08:50;;;;;;;4.35;1.40;;;;;;;;;;4897448;29;20056;-81
2023/11/26 05:11:22;;;;;;;3.15;1.67;;;;;;;;;;4896734;29;20079;-81
2023/11/26 05:13:51;;;;;;;4.82;1.75;;;;;;;;;;4897793;29;20059;-80
2023/11/26 05:16:22;;;;;;;2.42;1.25;;;;;;;;;;4896358;29;20518;-81
2023/11/26 05:18:52;;;;;;;2.33;1.10;;;;;;;;;;4879921;29;20052;-80
2023/11/26 05:21:22;;;;;;;3.17;1.20;;;;;;;;;;4896036;29;20059;-80
2023/11/26 05:23:52;;;;;;;3.22;1.33;;;;;;;;;;4897416;29;20052;-81
2023/11/26 05:26:23;;;;;;;4.28;1.15;;;;;;;;;;4898241;29;20072;-81
2023/11/26 05:28:55;;;;;;;3.55;1.35;;;;;;;;;;4896077;29;20060;-82
2023/11/26 05:31:25;;;;;;;6.32;1.23;;;;;;;;;;4879693;29;20060;-81
2023/11/26 05:33:56;;;;;;;3.90;1.23;;;;;;;;;;4880610;29;20057;-82
2023/11/26 05:36:26;;;;;;;2.92;1.17;;;;;;;;;;4897571;29;20065;-80
2023/11/26 05:38:57;;;;;;;3.90;1.30;;;;;;;;;;4895978;29;20056;-82
2023/11/26 05:41:26;;;;;;;4.50;1.33;;;;;;;;;;4882663;29;20049;-80
2023/11/26 05:43:57;;;;;;;4.60;1.33;;;;;;;;;;4900960;29;20059;-80
2023/11/26 05:46:27;;;;;;;3.75;1.25;;;;;;;;;;4900215;29;20057;-80
2023/11/26 05:48:57;;;;;;;3.70;1.20;;;;;;;;;;4900082;29;20060;-82
2023/11/26 05:51:27;;;;;;;4.40;1.02;;;;;;;;;;4899602;29;20060;-79
2023/11/26 05:53:58;;;;;;;2.90;1.38;;;;;;;;;;4900610;29;20060;-80
2023/11/26 05:56:28;;;;;;;6.88;1.20;;;;;;;;;;4900471;29;20080;-81
2023/11/26 05:58:58;;;;;;;3.72;1.20;;;;;;;;;;4899365;29;20547;-80
2023/11/26 06:01:27;;;;;;;4.22;1.40;;;;;;;;;;4900645;29;20045;-80
2023/11/26 06:03:57;;;;;;;3.55;1.70;;;;;;;;;;4882899;29;20424;-80
2023/11/26 06:06:28;;;;;;;2.53;1.10;;;;;;;;;;4899769;29;20448;-80
2023/11/26 06:09:01;;;;;;;4.20;1.52;;;;;;;;;;4900535;29;20056;-80
2023/11/26 06:11:32;;;;;;;5.15;1.23;;;;;;;;;;4899175;29;20396;-80
2023/11/26 06:14:02;;;;;;;3.38;1.27;;;;;;;;;;4899360;29;20052;-83
2023/11/26 06:16:33;;;;;;;4.63;1.25;;;;;;;;;;4898792;29;20060;-80
2023/11/26 06:19:03;;;;;;;4.55;1.67;;;;;;;;;;4900328;29;20045;-81
2023/11/26 06:21:33;;;;;;;5.20;1.30;;;;;;;;;;4899347;29;20413;-81
2023/11/26 06:24:04;;;;;;;4.18;1.05;;;;;;;;;;4898887;29;20480;-81
2023/11/26 06:26:37;;;;;;;2.97;1.35;;;;;;;;;;4900179;29;20053;-81
2023/11/26 06:29:08;;;;;;;10.90;1.27;;;;;;;;;;4900146;29;20063;-81
2023/11/26 06:31:39;;;;;;;10.63;1.50;;;;;;;;;;4898781;29;20080;-83
2023/11/26 06:34:09;;;;;;;5.18;1.40;;;;;;;;;;4899861;29;20045;-80
2023/11/26 06:36:39;;;;;;;6.57;1.40;;;;;;;;;;4882665;29;20068;-82
2023/11/26 06:39:10;;;;;;;4.30;1.40;;;;;;;;;;4899689;29;20048;-81
2023/11/26 06:41:41;;;;;;;10.15;1.50;;;;;;;;;;4900259;29;20048;-82
2023/11/26 06:44:11;;;;;;;4.10;1.33;;;;;;;;;;4899532;29;20045;-82
2023/11/26 06:46:43;;;;;;;3.15;1.60;;;;;;;;;;4898068;29;20075;-82
2023/11/26 06:49:13;;;;;;;6.05;1.63;;;;;;;;;;4899658;29;20072;-83
2023/11/26 06:51:44;;;;;;;5.97;1.40;;;;;;;;;;4899759;29;20045;-82
2023/11/26 06:54:15;;;;;;;6.85;1.70;;;;;;;;;;4897082;29;20056;-80
2023/11/26 06:56:46;;;;;;;7.28;1.33;;;;;;;;;;4892270;29;20056;-84
2023/11/26 06:59:16;;;;;;;4.88;1.35;;;;;;;;;;4898552;29;20059;-82
2023/11/26 07:01:47;;;;;;;5.60;1.20;;;;;;;;;;4899750;29;20379;-83
2023/11/26 07:04:18;;;;;;;5.07;1.52;;;;;;;;;;4899759;29;20056;-83
2023/11/26 07:06:49;;;;;;;4.53;1.48;;;;;;;;;;4899301;29;20399;-82
2023/11/26 07:09:20;;;;;;;3.63;1.30;;;;;;;;;;4898510;29;20064;-81
2023/11/26 07:11:50;;;;;;;3.03;1.30;;;;;;;;;;4901156;29;20062;-80
2023/11/26 07:14:19;;;;;;;6.93;2.00;;;;;;;;;;4903719;29;20060;-81
2023/11/26 07:16:54;;;;;;;7.60;1.42;;;;;;;;;;4901687;29;20053;-80
2023/11/26 07:19:24;;;;;;;3.72;1.35;;;;;;;;;;4901856;29;20068;-81
2023/11/26 07:21:55;;;;;;;4.25;1.27;;;;;;;;;;4905077;29;20056;-81
2023/11/26 07:24:25;;;;;;;4.35;1.70;;;;;;;;;;4903761;29;20052;-80
2023/11/26 07:26:55;;;;;;;5.07;1.52;;;;;;;;;;4901148;29;20048;-80
2023/11/26 07:29:25;;;;;;;3.83;1.77;;;;;;;;;;4898983;29;20357;-81
2023/11/26 07:31:55;;;;;;;5.20;1.38;;;;;;;;;;4898996;29;20056;-82
2023/11/26 07:34:25;;;;;;;3.78;1.60;;;;;;;;;;4881241;29;20076;-81
2023/11/26 07:36:55;;;;;;;3.63;1.60;;;;;;;;;;4898774;29;20052;-82
2023/11/26 07:39:26;;;;;;;5.85;1.88;;;;;;;;;;4897628;29;20068;-82
2023/11/26 07:41:56;;;;;;;7.88;2.05;;;;;;;;;;4881923;29;20079;-81
2023/11/26 07:44:26;;;;;;;5.32;2.05;;;;;;;;;;4898679;29;20511;-81
2023/11/26 07:46:56;;;;;;;6.22;1.92;;;;;;;;;;4896215;29;20416;-81
2023/11/26 07:49:26;;;;;;;4.28;1.63;;;;;;;;;;4898785;29;20151;-84
2023/11/26 07:51:57;;;;;;;4.93;1.83;;;;;;;;;;4880974;29;20056;-81
2023/11/26 07:54:27;;;;;;;4.00;1.40;;;;;;;;;;4898525;29;20044;-83
2023/11/26 07:56:59;;;;;;;4.20;1.63;;;;;;;;;;4898484;29;20048;-82
2023/11/26 07:59:29;;;;;;;4.13;1.55;;;;;;;;;;4881994;29;20040;-82
2023/11/26 08:01:59;;;;;;;3.58;1.75;;;;;;;;;;4897047;29;20079;-82
2023/11/26 08:04:28;;;;;;;6.80;1.52;;;;;;;;;;4896860;29;20060;-85
2023/11/26 08:07:01;;;;;;;5.38;1.77;;;;;;;;;;4898822;29;20060;-81
2023/11/26 08:09:35;;;;;;;5.40;1.70;;;;;;;;;;4881822;29;20504;-82
2023/11/26 08:12:10;;;;;;;7.50;1.67;;;;;;;;;;4898845;29;20408;-81
2023/11/26 08:14:41;;;;;;;6.47;1.58;;;;;;;;;;4898172;29;20059;-83
2023/11/26 08:17:11;;;;;;;5.13;1.50;;;;;;;;;;4897038;29;20055;-82
2023/11/26 08:19:42;;;;;;;6.13;1.83;;;;;;;;;;4897987;29;20044;-82
2023/11/26 08:22:13;;;;;;;4.20;1.75;;;;;;;;;;4880507;29;20060;-82
2023/11/26 08:24:43;;;;;;;4.50;1.40;;;;;;;;;;4897322;29;20048;-82
2023/11/26 08:27:17;;;;;;;5.63;1.85;;;;;;;;;;4898050;29;20052;-81
2023/11/26 08:29:48;;;;;;;;;;;;;;;;;;4898096;29;20147;-81
2023/11/26 08:32:19;;;;;;;4.05;1.58;;;;;;;;;;4898068;29;19927;-82
2023/11/26 08:34:51;;;;;;;3.83;1.48;;;;;;;;;;4897851;29;20056;-85
2023/11/26 08:37:23;;;;;;;5.15;1.75;;;;;;;;;;4897852;29;20047;-80
2023/11/26 08:39:56;;;;;;;5.30;2.42;;;;;;;;;;4897897;29;20344;-82
2023/11/26 08:42:27;;;;;;;5.70;1.98;;;;;;;;;;4898289;29;20055;-82
2023/11/26 08:44:57;;;;;;;5.72;1.77;;;;;;;;;;4898166;29;20479;-83
2023/11/26 08:47:28;;;;;;;6.82;2.35;;;;;;;;;;4881115;29;20392;-83
2023/11/26 08:49:58;;;;;;;4.75;1.65;;;;;;;;;;4897507;29;20044;-82
2023/11/26 08:52:30;;;;;;;4.13;1.40;;;;;;;;;;4880122;29;20052;-82
2023/11/26 08:55:04;;;;;;;5.97;1.83;;;;;;;;;;4897812;29;20071;-83
2023/11/26 08:57:41;;;;;;;7.65;1.67;;;;;;;;;;4897816;29;20047;-82
2023/11/26 09:00:12;;;;;;;4.07;1.88;;;;;;;;;;4892918;29;20054;-82
2023/11/26 09:02:43;;;;;;;5.15;2.20;;;;;;;;;;4878899;29;20500;-83
2023/11/26 09:05:13;;;;;;;5.28;1.80;;;;;;;;;;4861134;29;20052;-84
2023/11/26 09:07:45;;;;;;;4.50;1.85;;;;;;;;;;4854683;29;20049;-84
2023/11/26 09:10:19;;;;;;;9.38;1.83;;;;;;;;;;4879176;29;20056;-82
2023/11/26 09:12:49;;;;;;;4.45;1.85;;;;;;;;;;4878672;29;20056;-83
2023/11/26 09:15:20;;;;;;;3.97;1.50;;;;;;;;;;4878163;29;20045;-84
2023/11/26 09:17:50;;;;;;;3.22;1.45;;;;;;;;;;4890282;29;20048;-82
2023/11/26 09:20:20;;;;;;;5.50;2.03;;;;;;;;;;4889301;29;20504;-81
2023/11/26 09:22:51;;;;;;;4.30;2.15;;;;;;;;;;4889070;29;20049;-82
2023/11/26 09:25:21;;;;;;;6.13;1.83;;;;;;;;;;4889226;29;20404;-83
2023/11/26 09:27:50;;;;;;;4.18;1.88;;;;;;;;;;4878771;29;20056;-84
2023/11/26 09:30:22;;;;;;;4.28;1.77;;;;;;;;;;4877746;29;20052;-81
2023/11/26 09:32:52;;;;;;;6.70;1.55;;;;;;;;;;4887019;29;20048;-83
2023/11/26 09:35:23;;;;;;;6.25;1.48;;;;;;;;;;4893583;29;20037;-82
2023/11/26 09:37:53;;;;;;;7.88;1.88;;;;;;;;;;4898519;29;20506;-81
2023/11/26 09:40:23;;;;;;;3.58;1.70;;;;;;;;;;4899635;29;20049;-83
2023/11/26 09:42:56;;;;;;;5.07;1.50;;;;;;;;;;4897072;29;20052;-87
2023/11/26 09:45:27;;;;;;;5.55;1.75;;;;;;;;;;4898133;29;20043;-83
2023/11/26 09:47:58;;;;;;;9.63;5.70;;;;;;;;;;4898751;29;20041;-83
2023/11/26 09:50:28;;;;;;;5.70;2.60;;;;;;;;;;4896317;29;20048;-83
2023/11/26 09:52:59;;;;;;;4.07;1.40;;;;;;;;;;4898485;29;20044;-83
2023/11/26 09:55:40;;;;;;;4.53;2.00;;;;;;;;;;4898319;29;20052;-81
2023/11/26 09:58:10;;;;;;;4.07;1.60;;;;;;;;;;4882120;29;20514;-86
2023/11/26 10:00:42;;;;;;;4.05;1.48;;;;;;;;;;4900298;29;20057;-82
2023/11/26 10:03:12;;;;;;;4.50;1.50;;;;;;;;;;4884415;29;20053;-83
2023/11/26 10:05:44;;;;;;;5.50;1.63;;;;;;;;;;4875567;29;20063;-83
2023/11/26 10:08:30;;;;;;;4.93;1.83;;;;;;;;;;4901167;29;20388;-85
2023/11/26 10:11:01;;;;;;;3.53;1.40;;;;;;;;;;4879118;29;20053;-83
2023/11/26 10:13:38;;;;;;;5.43;1.83;;;;;;;;;;4878343;29;20405;-82
2023/11/26 10:16:09;;;;;;;4.35;1.60;;;;;;;;;;4887574;29;20048;-85
2023/11/26 10:18:43;;;;;;;5.18;1.40;;;;;;;;;;4898143;29;20045;-83
2023/11/26 10:21:14;;;;;;;3.05;1.42;;;;;;;;;;4898730;29;20484;-82
2023/11/26 10:23:45;;;;;;;2.92;1.15;;;;;;;;;;4881757;29;20059;-85
2023/11/26 10:26:26;;;;;;;3.50;1.33;;;;;;;;;;4898157;29;20048;-82
2023/11/26 10:28:59;;;;;;;4.35;1.45;;;;;;;;;;4896951;29;20516;-83
2023/11/26 10:31:30;;;;;;;4.72;1.70;;;;;;;;;;4898288;29;20048;-82
2023/11/26 10:34:16;;;;;;;2.58;1.20;;;;;;;;;;4898132;29;20047;-83
2023/11/26 10:36:46;;;;;;;5.82;1.80;;;;;;;;;;4897847;29;20044;-84
2023/11/26 10:39:17;;;;;;;3.70;1.48;;;;;;;;;;4898101;29;20518;-84
2023/11/26 10:41:49;;;;;;;3.17;1.50;;;;;;;;;;4897692;29;20061;-83
2023/11/26 10:44:23;;;;;;;3.55;1.42;;;;;;;;;;4898550;29;20048;-86
2023/11/26 10:46:59;;;;;;;5.25;1.73;;;;;;;;;;4883383;29;20060;-84
2023/11/26 10:49:36;;;;;;;5.13;1.40;;;;;;;;;;4862282;29;20053;-82
2023/11/26 10:52:24;;;;;;;4.25;1.48;;;;;;;;;;4879305;29;20045;-84
2023/11/26 10:55:10;;;;;;;5.10;1.50;;;;;;;;;;4861317;29;20050;-85
2023/11/26 10:57:42;;;;;;;2.20;1.23;;;;;;;;;;4878975;29;20045;-82
2023/11/26 11:00:20;;;;;;;3.47;1.30;;;;;;;;;;4878715;29;20052;-82
2023/11/26 11:02:50;;;;;;;3.28;1.45;;;;;;;;;;4878535;29;20049;-82
2023/11/26 11:05:23;;;;;;;3.38;1.40;;;;;;;;;;4879115;29;20060;-81
2023/11/26 11:07:53;;;;;;;5.63;1.83;;;;;;;;;;4878655;29;20064;-82
2023/11/26 11:10:24;;;;;;;5.28;1.40;;;;;;;;;;4878777;29;20053;-81
2023/11/26 11:13:20;;;;;;;3.78;1.70;;;;;;;;;;4878363;29;20045;-81
2023/11/26 11:15:51;;;;;;;4.15;1.55;;;;;;;;;;4879008;29;20064;-82
2023/11/26 11:18:32;;;;;;;5.53;1.42;;;;;;;;;;4864369;29;20053;-82
2023/11/26 11:21:09;;;;;;;3.10;1.27;;;;;;;;;;4879017;29;20049;-83
2023/11/26 11:23:41;;;;;;;6.05;1.48;;;;;;;;;;4878536;29;20045;-83
2023/11/26 11:26:15;;;;;;;3.38;1.50;;;;;;;;;;4862430;29;20045;-80
2023/11/26 11:28:51;;;;;;;1.90;1.05;;;;;;;;;;4878552;29;20520;-82
2023/11/26 11:31:23;;;;;;;5.50;1.50;;;;;;;;;;4878587;29;20056;-81
2023/11/26 11:33:56;;;;;;;4.85;1.30;;;;;;;;;;4894647;29;20051;-82
2023/11/26 11:36:44;;;;;;;4.55;1.50;;;;;;;;;;4899102;29;20055;-82
2023/11/26 11:39:17;;;;;;;3.22;1.60;;;;;;;;;;4898862;29;20059;-83
2023/11/26 11:42:05;;;;;;;6.38;1.73;;;;;;;;;;4898877;29;20060;-81
2023/11/26 11:44:37;;;;;;;3.05;1.50;;;;;;;;;;4898591;29;20049;-83
2023/11/26 11:47:43;;;;;;;3.97;1.27;;;;;;;;;;4898541;29;20508;-83
2023/11/26 11:50:16;;;;;;;3.15;1.42;;;;;;;;;;4882886;29;20048;-81
2023/11/26 11:52:55;;;;;;;4.00;1.40;;;;;;;;;;4898548;29;20068;-84
2023/11/26 11:55:50;;;;;;;2.28;1.08;;;;;;;;;;4882124;29;20053;-81
2023/11/26 11:58:21;;;;;;;3.22;1.27;;;;;;;;;;4898533;29;20040;-86
2023/11/26 12:00:59;;;;;;;4.53;1.63;;;;;;;;;;4896321;29;20408;-84
2023/11/26 12:03:32;;;;;;;2.40;1.10;;;;;;;;;;4898864;29;20052;-80
2023/11/26 12:06:13;;;;;;;3.90;1.23;;;;;;;;;;4898821;29;20059;-80
2023/11/26 12:08:44;;;;;;;2.92;1.23;;;;;;;;;;4898642;29;20045;-80
2023/11/26 12:11:14;;;;;;;3.00;1.67;;;;;;;;;;4881284;29;20048;-80
2023/11/26 12:13:45;;;;;;;1.92;1.15;;;;;;;;;;4898378;29;20057;-83
2023/11/26 12:16:15;;;;;;;2.25;0.90;;;;;;;;;;4880940;29;20044;-83
2023/11/26 12:19:06;;;;;;;4.22;1.55;;;;;;;;;;4890755;29;20503;-83
2023/11/26 12:21:36;;;;;;;3.40;1.00;;;;;;;;;;4898174;29;20048;-83
2023/11/26 12:24:28;;;;;;;2.45;0.90;;;;;;;;;;4898426;29;20056;-82
2023/11/26 12:26:59;;;;;;;2.85;1.17;;;;;;;;;;4898191;29;20063;-82
2023/11/26 12:29:32;;;;;;;;;;;;;;;;;;4898869;29;20049;-82
2023/11/26 12:32:08;;;;;;;;;;;;;;;;;;4898732;29;20010;-84
2023/11/26 12:34:40;;;;;;;4.75;0.98;;;;;;;;;;4897743;29;19927;-81
2023/11/26 12:37:12;;;;;;;2.90;0.98;;;;;;;;;;4897908;29;20044;-83
2023/11/26 12:39:43;;;;;;;3.42;0.90;;;;;;;;;;4897835;29;20049;-80
2023/11/26 12:42:14;;;;;;;2.13;0.77;;;;;;;;;;4882063;29;20504;-81
2023/11/26 12:44:45;;;;;;;4.63;1.17;;;;;;;;;;4872349;29;20395;-79
2023/11/26 12:47:15;;;;;;;3.20;0.90;;;;;;;;;;4879095;29;20484;-80
2023/11/26 12:49:59;;;;;;;3.00;1.08;;;;;;;;;;4879169;29;20052;-79
2023/11/26 12:52:33;;;;;;;2.92;0.93;;;;;;;;;;4878971;29;20037;-81
2023/11/26 12:55:07;;;;;;;2.22;1.00;;;;;;;;;;4879134;29;20053;-79
2023/11/26 12:57:38;;;;;;;3.80;1.33;;;;;;;;;;4878871;29;20074;-79
2023/11/26 13:00:10;;;;;;;3.95;1.05;;;;;;;;;;4879277;29;20473;-79
2023/11/26 13:02:41;;;;;;;;;;;;;;;;;;4879585;29;20053;-82
2023/11/26 13:05:30;;;;;;;;;;;;;;;;;;4879509;29;20291;-78
2023/11/26 13:08:01;;;;;;;2.47;1.35;;;;;;;;;;4878097;29;19955;-80
2023/11/26 13:10:42;;;;;;;3.25;1.80;;;;;;;;;;4876434;29;20404;-79
2023/11/26 13:13:21;;;;;;;2.35;1.45;;;;;;;;;;4876777;29;20049;-78
2023/11/26 13:15:52;;;;;;;4.38;1.33;;;;;;;;;;4876639;29;20052;-78
2023/11/26 13:18:22;;;;;;;2.13;1.02;;;;;;;;;;4876461;29;20045;-79
2023/11/26 13:20:56;;;;;;;3.47;1.20;;;;;;;;;;4875320;29;20420;-79
2023/11/26 13:23:26;;;;;;;1.85;0.80;;;;;;;;;;4876682;29;20045;-80
2023/11/26 13:25:58;;;;;;;2.58;1.20;;;;;;;;;;4878146;29;20500;-78
2023/11/26 13:28:30;;;;;;;2.50;0.88;;;;;;;;;;4878624;29;20048;-80
2023/11/26 13:31:00;;;;;;;3.17;1.23;;;;;;;;;;4878717;29;20053;-78
2023/11/26 13:33:30;;;;;;;1.50;1.00;;;;;;;;;;4878295;29;20056;-80
2023/11/26 13:36:01;;;;;;;2.33;1.05;;;;;;;;;;4878554;29;20049;-79
2023/11/26 13:38:32;;;;;;;1.60;0.82;;;;;;;;;;4862245;29;20045;-79
2023/11/26 13:41:02;;;;;;;1.42;0.80;;;;;;;;;;4878333;29;20052;-78
2023/11/26 13:43:32;;;;;;;4.28;1.10;;;;;;;;;;4878689;29;20049;-78
2023/11/26 13:46:03;;;;;;;3.95;1.30;;;;;;;;;;4879077;29;20041;-78
2023/11/26 13:48:36;;;;;;;6.35;3.03;;;;;;;;;;4878445;29;20053;-78
2023/11/26 13:51:07;;;;;;;3.50;1.20;;;;;;;;;;4878307;29;20045;-79
2023/11/26 13:53:38;;;;;;;4.40;0.90;;;;;;;;;;4878393;29;20394;-80
2023/11/26 13:56:09;;;;;;;3.35;1.45;;;;;;;;;;4878670;29;20454;-79
2023/11/26 13:58:41;;;;;;;3.15;1.50;;;;;;;;;;4878448;29;20401;-78
2023/11/26 14:01:12;;;;;;;2.78;0.90;;;;;;;;;;4878312;29;20393;-77
2023/11/26 14:03:43;;;;;;;11.13;1.23;;;;;;;;;;4881717;29;20052;-78
2023/11/26 14:06:13;;;;;;;2.88;0.93;;;;;;;;;;4881486;29;20108;-79
2023/11/26 14:08:42;;;;;;;4.35;0.80;;;;;;;;;;4880006;29;20052;-78
2023/11/26 14:11:13;;;;;;;5.15;0.80;;;;;;;;;;4879629;29;20049;-79
2023/11/26 14:13:44;;;;;;;1.15;0.60;;;;;;;;;;4879509;29;20041;-79
2023/11/26 14:16:17;;;;;;;1.83;0.93;;;;;;;;;;4879619;29;20412;-79
2023/11/26 14:18:47;;;;;;;2.80;1.00;;;;;;;;;;4879540;29;20052;-79
2023/11/26 14:21:17;;;;;;;3.17;0.80;;;;;;;;;;4879667;29;20365;-79
2023/11/26 14:23:47;;;;;;;4.30;0.85;;;;;;;;;;4879688;29;20131;-78
2023/11/26 14:26:20;;;;;;;5.70;1.02;;;;;;;;;;4879509;29;20401;-77
2023/11/26 14:28:51;;;;;;;8.93;4.93;;;;;;;;;;4879156;29;20417;-81
2023/11/26 14:31:21;;;;;;;2.42;1.00;;;;;;;;;;4879215;29;20404;-78
2023/11/26 14:33:51;;;;;;;13.02;7.65;;;;;;;;;;4879265;29;20052;-80
2023/11/26 14:36:21;;;;;;;3.20;1.40;;;;;;;;;;4890468;29;20048;-79
2023/11/26 14:38:52;;;;;;;3.83;1.38;;;;;;;;;;4897990;29;20045;-79
2023/11/26 14:41:22;;;;;;;3.00;1.10;;;;;;;;;;4897751;29;20063;-78
2023/11/26 14:43:52;;;;;;;4.30;2.08;;;;;;;;;;4897486;29;20056;-78
2023/11/26 14:46:24;;;;;;;2.90;1.02;;;;;;;;;;4897475;29;20051;-78
2023/11/26 14:48:55;;;;;;;2.67;1.13;;;;;;;;;;4883102;29;20057;-78
2023/11/26 14:51:27;;;;;;;3.40;1.05;;;;;;;;;;4899925;29;20388;-80
2023/11/26 14:53:58;;;;;;;2.13;0.90;;;;;;;;;;4899767;29;20045;-78
2023/11/26 14:56:30;;;;;;;2.35;0.80;;;;;;;;;;4899860;29;20480;-78
2023/11/26 14:59:00;;;;;;;3.88;0.93;;;;;;;;;;4899668;29;20047;-78
2023/11/26 15:01:32;;;;;;;1.95;0.88;;;;;;;;;;4899999;29;20048;-79
2023/11/26 15:04:02;;;;;;;4.28;1.10;;;;;;;;;;4899956;29;20051;-79
2023/11/26 15:06:32;;;;;;;2.33;0.90;;;;;;;;;;4899772;29;20053;-78
2023/11/26 15:09:03;;;;;;;4.30;0.93;;;;;;;;;;4899507;29;20401;-79
2023/11/26 15:11:36;;;;;;;5.68;0.80;;;;;;;;;;4899556;29;20051;-79
2023/11/26 15:14:08;;;;;;;2.58;1.00;;;;;;;;;;4899025;29;20055;-79
2023/11/26 15:16:38;;;;;;;;;;;;;;;;;;4900039;29;20040;-79